Time;durP1;ratioP1;P1;durP2;ratioP2;P2;SDS_P1;SDS_P2;PMS_P1;PMS_P2;Temp;Humidity;BMP_temperature;BMP_pressure;BME280_temperature;BME280_humidity;BME280_pressure;Samples;Min_cycle;Max_cycle;Signal;HPM_P1;HPM_P2
2022/01/12 00:01:14;;;;;;;26.50;15.88;;;;;;;0.61;96.28;103393.16;4913580;29;20116;-96
2022/01/12 00:03:44;;;;;;;27.90;16.88;;;;;;;0.63;96.34;103383.63;4908605;29;20044;-95
2022/01/12 00:06:09;;;;;;;29.15;17.08;;;;;;;0.62;96.41;103381.81;4911517;29;20047;-95
2022/01/12 00:08:35;;;;;;;25.25;15.35;;;;;;;0.58;96.13;103391.31;4913824;29;20040;-95
2022/01/12 00:11:03;;;;;;;28.85;16.45;;;;;;;0.56;96.27;103393.00;4913443;29;20092;-94
2022/01/12 00:13:28;;;;;;;28.60;17.98;;;;;;;0.53;96.41;103397.25;4913488;29;20517;-95
2022/01/12 00:15:54;;;;;;;28.88;16.40;;;;;;;0.62;96.53;103415.88;4911596;29;20050;-94
2022/01/12 00:18:20;;;;;;;26.52;17.23;;;;;;;0.59;96.18;103394.84;4913561;29;20035;-95
2022/01/12 00:20:46;;;;;;;25.70;15.88;;;;;;;0.68;96.32;103414.38;4916394;29;20048;-95
2022/01/12 00:23:12;;;;;;;27.92;16.67;;;;;;;0.68;96.11;103432.72;4968871;28;20035;-95
2022/01/12 00:34:11;;;;;;;25.80;16.02;;;;;;;0.79;95.54;103432.16;4912378;29;20051;-94
2022/01/12 00:36:37;;;;;;;29.17;16.83;;;;;;;0.82;95.64;103430.50;4912172;29;20600;-94
2022/01/12 00:39:05;;;;;;;26.95;16.38;;;;;;;0.83;95.62;103429.66;4923542;29;20085;-93
2022/01/12 00:41:30;;;;;;;24.70;16.48;;;;;;;0.83;95.83;103421.78;4935050;29;20050;-94
2022/01/12 00:43:58;;;;;;;28.20;17.02;;;;;;;0.80;95.60;103418.22;4920905;29;20115;-93
2022/01/12 00:46:25;;;;;;;29.77;17.10;;;;;;;0.82;95.21;103429.63;4907553;29;20112;-95
2022/01/12 00:48:52;;;;;;;27.02;16.83;;;;;;;0.88;95.13;103443.81;4912640;29;20498;-94
2022/01/12 00:51:18;;;;;;;25.75;15.68;;;;;;;0.90;95.13;103446.47;4913188;29;20090;-93
2022/01/12 00:53:43;;;;;;;25.85;16.30;;;;;;;0.90;95.10;103450.00;4913447;29;20036;-94
2022/01/12 00:56:08;;;;;;;26.95;15.88;;;;;;;0.86;95.08;103445.50;4918270;29;20111;-94
2022/01/12 00:58:36;;;;;;;32.35;18.17;;;;;;;0.94;94.78;103464.09;4920623;28;20039;-94
2022/01/12 01:01:03;;;;;;;28.00;16.13;;;;;;;0.91;95.06;103459.63;4969752;28;20066;-94
2022/01/12 01:03:29;;;;;;;32.63;16.42;;;;;;;0.92;94.60;103463.13;4970643;28;20026;-95
2022/01/12 01:05:55;;;;;;;25.35;16.13;;;;;;;0.96;94.76;103476.41;4965190;28;20046;-93
2022/01/12 01:08:21;;;;;;;28.15;17.05;;;;;;;0.94;94.88;103471.97;4967896;28;20196;-95
2022/01/12 01:10:47;;;;;;;25.95;17.30;;;;;;;0.95;94.77;103469.38;4966505;28;20027;-93
2022/01/12 01:13:21;;;;;;;27.98;16.65;;;;;;;0.99;94.59;103472.97;4971398;28;20113;-96
2022/01/12 01:26:29;;;;;;;;;;;;;;;1.01;95.74;103500.16;4972065;28;20057;-94
2022/01/12 01:28:54;;;;;;;31.17;17.75;;;;;;;0.94;96.16;103495.56;4985110;28;19949;-93
2022/01/12 01:31:20;;;;;;;31.13;19.40;;;;;;;0.88;96.81;103477.00;4971010;28;20049;-95
2022/01/12 01:33:47;;;;;;;33.88;19.63;;;;;;;0.80;97.33;103465.41;4975404;28;20160;-95
2022/01/12 01:36:13;;;;;;;37.00;19.13;;;;;;;0.71;97.83;103464.28;4970146;28;20527;-93
2022/01/12 01:38:39;;;;;;;32.92;19.65;;;;;;;0.69;98.19;103462.44;4971715;28;20062;-95
2022/01/12 01:41:05;;;;;;;32.13;18.92;;;;;;;0.66;98.53;103471.06;4971509;28;20035;-95
2022/01/12 01:54:13;;;;;;;;;;;;;;;0.62;99.27;103497.13;4971732;28;20050;-95
2022/01/12 01:56:39;;;;;;;40.40;21.75;;;;;;;0.58;100.00;103496.16;4971146;28;19921;-94
2022/01/12 01:59:04;;;;;;;34.17;20.77;;;;;;;0.53;100.00;103487.25;4971930;28;20035;-94
2022/01/12 02:01:29;;;;;;;39.28;22.58;;;;;;;0.58;100.00;103490.03;4967377;28;20042;-96
2022/01/12 02:04:01;;;;;;;40.28;21.83;;;;;;;0.55;100.00;103479.47;4974078;28;20385;-95
2022/01/12 02:06:27;;;;;;;34.50;21.23;;;;;;;0.54;100.00;103467.16;4976741;28;20313;-96
2022/01/12 02:08:52;;;;;;;38.60;22.90;;;;;;;0.60;100.00;103467.38;4985660;28;20011;-96
2022/01/12 02:11:24;;;;;;;41.60;21.90;;;;;;;0.57;100.00;103443.69;4998259;28;20026;-94
2022/01/12 02:13:49;;;;;;;33.03;21.17;;;;;;;0.56;100.00;103445.44;4998918;28;20033;-94
2022/01/12 02:16:17;;;;;;;37.80;21.85;;;;;;;0.53;100.00;103439.19;4997047;28;20026;-95
2022/01/12 02:19:08;;;;;;;40.20;22.95;;;;;;;0.47;100.00;103427.69;4996112;28;20042;-95
2022/01/12 02:35:36;;;;;;;40.88;22.95;;;;;;;0.41;100.00;103469.38;4993911;28;20103;-96
2022/01/12 02:40:29;;;;;;;37.63;21.73;;;;;;;0.48;100.00;103476.63;4975262;28;20035;-95
2022/01/12 02:43:18;;;;;;;39.90;21.23;;;;;;;0.50;100.00;103479.28;4957496;28;20102;-95
2022/01/12 02:51:28;;;;;;;32.13;20.38;;;;;;;0.53;100.00;103473.25;4974699;28;20049;-96
2022/01/12 02:53:53;;;;;;;35.25;21.95;;;;;;;0.60;100.00;103485.72;4973924;28;20023;-95
2022/01/12 02:56:33;;;;;;;35.33;21.88;;;;;;;0.64;100.00;103495.47;4971634;28;20111;-95
2022/01/12 02:58:59;;;;;;;37.03;21.02;;;;;;;0.66;100.00;103489.44;4974534;28;20480;-94
2022/01/12 03:01:51;;;;;;;37.45;21.00;;;;;;;0.70;99.93;103491.31;4974660;28;20097;-94
2022/01/12 03:04:13;;;;;;;39.85;22.33;;;;;;;0.69;99.85;103476.44;4974685;28;20125;-95
2022/01/12 03:06:40;;;;;;;32.05;19.33;;;;;;;0.74;99.39;103479.19;4995280;28;20031;-94
2022/01/12 03:09:08;;;;;;;41.78;22.30;;;;;;;0.67;98.92;103469.34;4987491;28;20026;-95
2022/01/12 03:11:35;;;;;;;37.97;20.33;;;;;;;0.78;99.06;103494.19;4973235;28;20028;-96
2022/01/12 03:14:01;;;;;;;36.47;20.58;;;;;;;0.76;99.16;103488.00;4973564;28;20035;-96
2022/01/12 03:16:28;;;;;;;33.38;20.17;;;;;;;0.82;98.98;103496.06;4974567;28;20035;-95
2022/01/12 03:18:58;;;;;;;34.88;20.65;;;;;;;0.84;98.89;103504.00;4973265;28;20039;-95
2022/01/12 03:21:27;;;;;;;34.05;19.90;;;;;;;0.82;98.35;103498.69;4973764;28;20488;-94
2022/01/12 03:23:53;;;;;;;34.53;20.38;;;;;;;0.86;97.95;103512.78;4973100;28;20035;-95
2022/01/12 03:26:19;;;;;;;34.42;20.30;;;;;;;0.88;97.84;103526.81;4971883;28;20412;-93
2022/01/12 03:28:53;;;;;;;30.90;19.23;;;;;;;0.88;97.91;103525.13;4973988;28;20476;-93
2022/01/12 03:31:22;;;;;;;36.15;21.25;;;;;;;0.91;97.90;103540.91;4973491;28;20073;-94
2022/01/12 03:38:55;;;;;;;32.92;19.08;;;;;;;0.85;98.28;103531.97;4973646;28;20062;-95
2022/01/12 03:41:21;;;;;;;37.22;21.13;;;;;;;0.77;98.42;103517.72;4973863;28;20027;-94
2022/01/12 03:43:47;;;;;;;36.42;20.83;;;;;;;0.80;98.82;103530.94;4973557;28;20499;-94
2022/01/12 03:46:14;;;;;;;34.25;20.63;;;;;;;0.79;99.39;103530.03;4970834;28;20034;-93
2022/01/12 03:48:40;;;;;;;41.28;22.17;;;;;;;0.71;99.94;103514.09;4971775;28;20054;-93
2022/01/12 03:51:05;;;;;;;39.55;21.35;;;;;;;0.72;100.00;103525.44;4971850;28;20031;-94
2022/01/12 03:53:31;;;;;;;40.25;22.02;;;;;;;0.69;100.00;103520.09;4965216;28;20041;-93
2022/01/12 03:55:56;;;;;;;38.42;21.52;;;;;;;0.68;100.00;103518.34;4979904;28;20050;-93
2022/01/12 03:58:21;;;;;;;43.33;22.45;;;;;;;0.66;100.00;103510.41;4974419;28;20031;-93
2022/01/12 04:00:46;;;;;;;39.63;22.48;;;;;;;0.55;100.00;103503.94;4984124;28;20037;-94
2022/01/12 04:03:14;;;;;;;43.78;22.23;;;;;;;0.61;100.00;103518.97;4972697;28;20038;-94
2022/01/12 04:08:18;;;;;;;43.97;22.35;;;;;;;0.62;100.00;103525.97;4971241;28;20294;-94
2022/01/12 04:08:25;;;;;;;38.60;23.10;;;;;;;0.57;100.00;103519.69;4972052;28;20046;-94
2022/01/12 04:10:56;;;;;;;42.40;22.40;;;;;;;0.61;100.00;103532.06;4952094;28;20027;-93
2022/01/12 04:13:22;;;;;;;42.90;23.38;;;;;;;0.58;100.00;103539.81;4980656;28;20055;-93
2022/01/12 04:15:52;;;;;;;41.28;22.88;;;;;;;0.53;100.00;103538.78;4969535;28;20030;-92
2022/01/12 04:18:17;;;;;;;43.08;23.13;;;;;;;0.47;100.00;103545.59;4970922;28;20042;-93
2022/01/12 04:20:47;;;;;;;44.85;24.13;;;;;;;0.53;100.00;103557.13;4971382;28;20121;-93
2022/01/12 04:23:19;;;;;;;41.90;23.60;;;;;;;0.49;100.00;103546.53;4971091;28;20097;-94
2022/01/12 04:25:51;;;;;;;43.50;25.27;;;;;;;0.48;100.00;103550.00;4971115;28;20027;-93
2022/01/12 04:28:17;;;;;;;46.70;24.05;;;;;;;0.54;100.00;103554.53;4981810;28;20029;-93
2022/01/12 04:30:43;;;;;;;45.58;24.02;;;;;;;0.54;100.00;103561.50;4988692;28;20031;-93
2022/01/12 04:33:09;;;;;;;49.78;24.80;;;;;;;0.49;100.00;103548.25;4973470;28;20084;-93
2022/01/12 04:35:45;;;;;;;46.28;24.25;;;;;;;0.52;100.00;103558.84;4970706;28;20019;-93
2022/01/12 04:38:11;;;;;;;50.50;24.83;;;;;;;0.49;100.00;103559.63;4952096;29;20031;-94
2022/01/12 04:40:37;;;;;;;42.85;24.02;;;;;;;0.52;100.00;103547.50;4964100;28;20070;-93
2022/01/12 04:43:02;;;;;;;47.15;24.60;;;;;;;0.58;100.00;103566.03;4966957;29;20031;-93
2022/01/12 04:50:19;;;;;;;50.60;26.20;;;;;;;0.59;100.00;103532.03;4970998;28;20031;-93
2022/01/12 04:52:45;;;;;;;52.08;25.98;;;;;;;0.47;100.00;103511.53;4971179;28;20027;-94
2022/01/12 04:55:10;;;;;;;54.78;27.30;;;;;;;0.62;100.00;103528.59;4969550;28;20030;-92
2022/01/12 04:57:35;;;;;;;48.92;26.33;;;;;;;0.61;100.00;103530.31;4953644;28;20472;-92
2022/01/12 05:00:13;;;;;;;56.00;26.90;;;;;;;0.58;100.00;103529.34;4944031;28;20475;-93
2022/01/12 05:08:19;;;;;;;;;;;;;;;0.67;100.00;103519.16;4970322;28;20069;-92
2022/01/12 05:13:30;;;;;;;52.55;26.63;;;;;;;0.62;100.00;103512.88;4973059;28;20134;-93
2022/01/12 05:15:57;;;;;;;52.53;27.55;;;;;;;0.62;100.00;103512.88;4957568;28;20062;-93
2022/01/12 05:18:22;;;;;;;55.85;28.60;;;;;;;0.57;100.00;103509.22;4979053;28;20031;-94
2022/01/12 05:20:47;;;;;;;55.33;27.75;;;;;;;0.60;100.00;103522.44;4994310;28;20018;-95
2022/01/12 05:23:13;;;;;;;56.10;27.85;;;;;;;0.58;100.00;103535.47;4993368;28;20043;-95
2022/01/12 05:25:39;;;;;;;62.97;28.40;;;;;;;0.54;100.00;103535.31;4992637;28;20094;-93
2022/01/12 05:28:05;;;;;;;53.00;28.30;;;;;;;0.59;100.00;103550.38;4991451;28;20140;-93
2022/01/12 05:30:30;;;;;;;60.72;29.85;;;;;;;0.57;100.00;103544.16;4990075;28;20133;-94
2022/01/12 05:32:55;;;;;;;58.50;28.58;;;;;;;0.57;100.00;103549.41;4967968;28;20030;-95
2022/01/12 05:35:21;;;;;;;60.38;30.45;;;;;;;0.58;100.00;103551.19;4969908;28;20049;-95
2022/01/12 05:37:47;;;;;;;63.80;29.85;;;;;;;0.58;100.00;103552.91;4940379;28;20027;-95
2022/01/12 05:40:14;;;;;;;62.40;28.60;;;;;;;0.61;100.00;103553.91;4961800;28;20167;-94
2022/01/12 05:42:39;;;;;;;68.53;30.88;;;;;;;0.61;100.00;103553.91;4956299;28;20034;-95
2022/01/12 05:45:07;;;;;;;70.07;32.35;;;;;;;0.61;100.00;103555.66;4990003;28;20049;-95
2022/01/12 05:50:00;;;;;;;70.57;30.95;;;;;;;0.61;100.00;103571.38;4976163;28;20046;-92
2022/01/12 05:52:26;;;;;;;64.28;30.40;;;;;;;0.60;100.00;103567.88;4958603;28;20499;-94
2022/01/12 05:54:51;;;;;;;65.32;31.10;;;;;;;0.62;100.00;103567.91;4974418;28;20026;-94
2022/01/12 05:57:16;;;;;;;71.53;32.35;;;;;;;0.58;100.00;103551.19;4973179;28;20392;-94
2022/01/12 05:59:42;;;;;;;70.88;31.98;;;;;;;0.57;100.00;103554.66;4975860;28;20030;-95
2022/01/12 06:02:07;;;;;;;73.72;32.30;;;;;;;0.60;100.00;103562.63;4973992;28;20035;-95
2022/01/12 06:04:32;;;;;;;71.68;30.75;;;;;;;0.60;100.00;103559.13;4974576;28;20031;-94
2022/01/12 06:07:01;;;;;;;72.88;32.33;;;;;;;0.60;100.00;103565.25;4973474;28;20038;-94
2022/01/12 06:09:26;;;;;;;66.38;31.42;;;;;;;0.59;100.00;103563.47;4974409;28;20027;-94
2022/01/12 06:11:51;;;;;;;70.05;31.73;;;;;;;0.61;100.00;103563.50;4974227;28;20448;-94
2022/01/12 06:14:19;;;;;;;74.85;32.72;;;;;;;0.55;100.00;103550.22;4975154;28;20465;-94
2022/01/12 06:16:44;;;;;;;73.85;33.45;;;;;;;0.59;100.00;103565.22;4977959;28;20043;-94
2022/01/12 06:19:10;;;;;;;71.32;32.85;;;;;;;0.61;100.00;103574.00;4987887;28;20070;-94
2022/01/12 06:21:35;;;;;;;79.78;33.42;;;;;;;0.59;100.00;103579.19;4995337;28;20030;-93
2022/01/12 06:24:00;;;;;;;72.18;33.38;;;;;;;0.58;100.00;103579.13;4982259;28;20070;-94
2022/01/12 06:26:26;;;;;;;79.13;34.33;;;;;;;0.61;100.00;103580.13;4957393;28;20031;-93
2022/01/12 06:29:14;;;;;;;82.15;35.60;;;;;;;0.65;100.00;103583.75;4974970;28;20034;-91
2022/01/12 06:31:41;;;;;;;75.28;33.20;;;;;;;0.67;100.00;103584.69;4969034;28;20054;-92
2022/01/12 06:34:06;;;;;;;75.38;33.15;;;;;;;0.69;100.00;103593.50;4972786;28;20038;-93
2022/01/12 06:36:32;;;;;;;75.80;33.78;;;;;;;0.70;100.00;103596.16;4976656;28;20038;-93
2022/01/12 06:38:57;;;;;;;73.93;32.88;;;;;;;0.72;100.00;103604.09;4974088;28;20058;-93
2022/01/12 06:41:24;;;;;;;82.78;33.40;;;;;;;0.73;100.00;103605.88;4973107;28;20042;-96
2022/01/12 06:43:50;;;;;;;74.60;33.03;;;;;;;0.69;100.00;103602.25;4972571;28;20062;-95
2022/01/12 06:46:19;;;;;;;83.03;35.85;;;;;;;0.73;100.00;103608.50;4972265;28;20035;-95
2022/01/12 06:48:44;;;;;;;74.88;33.38;;;;;;;0.76;100.00;103624.34;4980021;28;20039;-95
2022/01/12 06:51:09;;;;;;;81.35;34.60;;;;;;;0.77;100.00;103627.84;4979094;28;20042;-95
2022/01/12 06:53:35;;;;;;;85.60;36.00;;;;;;;0.78;100.00;103635.75;4972699;28;20054;-94
2022/01/12 06:56:00;;;;;;;81.25;35.97;;;;;;;0.79;100.00;103642.78;4971139;28;20395;-91
2022/01/12 06:58:26;;;;;;;78.75;34.45;;;;;;;0.75;100.00;103625.16;4969902;28;20033;-92
2022/01/12 07:00:51;;;;;;;84.32;35.42;;;;;;;0.77;100.00;103623.50;4967860;28;20046;-96
2022/01/12 07:03:16;;;;;;;80.80;36.17;;;;;;;0.79;100.00;103629.66;4965840;28;20484;-92
2022/01/12 07:05:42;;;;;;;72.18;33.30;;;;;;;0.81;100.00;103633.25;4980773;28;20031;-92
2022/01/12 07:08:07;;;;;;;80.40;35.28;;;;;;;0.83;100.00;103643.78;4971508;28;20058;-90
2022/01/12 07:10:32;;;;;;;83.10;35.17;;;;;;;0.84;100.00;103641.22;4975128;28;20042;-93
2022/01/12 07:12:58;;;;;;;78.18;33.88;;;;;;;0.80;100.00;103636.72;4969211;28;20093;-92
2022/01/12 07:15:23;;;;;;;80.03;33.78;;;;;;;0.83;100.00;103649.91;4968733;28;20090;-91
2022/01/12 07:17:49;;;;;;;77.60;34.13;;;;;;;0.82;100.00;103656.00;4970448;28;20069;-91
2022/01/12 07:20:15;;;;;;;84.68;35.92;;;;;;;0.86;100.00;103667.47;4953777;28;20063;-91
2022/01/12 07:22:40;;;;;;;82.90;35.83;;;;;;;0.80;100.00;103646.31;4971580;28;20050;-92
2022/01/12 07:25:06;;;;;;;76.88;34.67;;;;;;;0.87;100.00;103653.53;4969509;28;20073;-92
2022/01/12 07:27:31;;;;;;;88.72;35.08;;;;;;;0.84;100.00;103645.56;4971495;28;20026;-92
2022/01/12 07:29:58;;;;;;;75.70;33.70;;;;;;;0.88;100.00;103655.31;4969200;28;20035;-93
2022/01/12 07:32:23;;;;;;;81.35;36.83;;;;;;;0.88;100.00;103658.84;4976005;28;20093;-93
2022/01/12 07:34:50;;;;;;;84.82;35.80;;;;;;;0.92;100.00;103665.97;4970410;28;20054;-92
2022/01/12 07:37:15;;;;;;;84.15;35.30;;;;;;;0.91;100.00;103658.03;4970983;28;20027;-93
2022/01/12 07:39:40;;;;;;;79.85;34.45;;;;;;;0.87;100.00;103643.03;4970206;28;20034;-93
2022/01/12 07:42:06;;;;;;;81.03;36.25;;;;;;;0.91;100.00;103663.28;4954514;28;20030;-91
2022/01/12 07:44:32;;;;;;;87.63;36.10;;;;;;;0.97;100.00;103681.88;4970759;28;20038;-93
2022/01/12 07:46:57;;;;;;;83.00;36.05;;;;;;;0.99;100.00;103673.19;4970056;28;20338;-93
2022/01/12 07:49:22;;;;;;;83.85;36.13;;;;;;;1.01;100.00;103682.88;4970219;28;20058;-91
2022/01/12 07:51:48;;;;;;;80.03;35.80;;;;;;;1.02;100.00;103688.16;4970235;28;20487;-92
2022/01/12 07:54:13;;;;;;;78.25;36.38;;;;;;;1.01;100.00;103690.72;4971341;28;20030;-90
2022/01/12 07:56:38;;;;;;;88.50;36.80;;;;;;;1.03;100.00;103689.03;4970183;28;20034;-92
2022/01/12 07:59:03;;;;;;;79.47;36.38;;;;;;;1.02;100.00;103697.75;4971093;28;20031;-93
2022/01/12 08:01:29;;;;;;;83.57;35.47;;;;;;;1.05;100.00;103701.38;4972399;28;20031;-93
2022/01/12 08:03:54;;;;;;;80.82;35.15;;;;;;;0.97;100.00;103690.63;4971304;28;20035;-91
2022/01/12 08:06:20;;;;;;;87.22;37.75;;;;;;;1.08;100.00;103708.44;4970151;28;20035;-92
2022/01/12 08:08:46;;;;;;;83.38;35.85;;;;;;;1.04;100.00;103706.56;4972061;28;20097;-93
2022/01/12 08:11:11;;;;;;;86.53;36.25;;;;;;;1.07;100.00;103717.16;4969167;28;20465;-92
2022/01/12 08:13:36;;;;;;;83.63;36.05;;;;;;;1.12;100.00;103726.97;4971777;28;20164;-93
2022/01/12 08:16:02;;;;;;;87.30;37.75;;;;;;;1.11;100.00;103726.91;4950642;28;20023;-93
2022/01/12 08:18:27;;;;;;;80.97;36.85;;;;;;;1.13;100.00;103739.25;4963709;28;20473;-93
2022/01/12 08:20:52;;;;;;;86.65;37.58;;;;;;;1.15;100.00;103736.69;4981364;28;20433;-96
2022/01/12 08:23:19;;;;;;;84.95;37.80;;;;;;;1.16;100.00;103741.09;4981668;28;20368;-95
2022/01/12 08:25:45;;;;;;;81.53;35.90;;;;;;;1.15;100.00;103749.78;4977803;28;20227;-92
2022/01/12 08:28:10;;;;;;;88.38;37.05;;;;;;;1.17;100.00;103745.47;4962910;28;20023;-93
2022/01/12 08:30:36;;;;;;;84.72;36.83;;;;;;;1.19;100.00;103754.31;4971618;28;20424;-93
2022/01/12 08:33:04;;;;;;;85.32;38.10;;;;;;;1.15;100.00;103750.69;4973884;28;20038;-93
2022/01/12 08:35:29;;;;;;;86.53;36.05;;;;;;;1.21;100.00;103760.50;4976149;28;20034;-93
2022/01/12 08:37:55;;;;;;;76.18;34.90;;;;;;;1.22;100.00;103765.81;4974138;28;20493;-92
2022/01/12 08:40:21;;;;;;;82.18;34.50;;;;;;;1.22;100.00;103771.06;4974773;28;20497;-93
2022/01/12 08:42:47;;;;;;;77.55;35.50;;;;;;;1.18;100.00;103756.03;4978261;28;20026;-94
2022/01/12 08:45:14;;;;;;;80.43;34.58;;;;;;;1.25;100.00;103759.75;4993357;28;20049;-93
2022/01/12 08:47:39;;;;;;;82.28;34.72;;;;;;;1.20;100.00;103746.47;4974804;28;20058;-94
2022/01/12 08:50:06;;;;;;;88.25;36.00;;;;;;;1.28;100.00;103762.50;4962728;28;20028;-94
2022/01/12 08:52:31;;;;;;;85.57;36.38;;;;;;;1.24;100.00;103755.34;4973122;28;20053;-94
2022/01/12 08:54:57;;;;;;;84.57;35.97;;;;;;;1.32;100.00;103758.25;4974705;28;20035;-95
2022/01/12 08:57:22;;;;;;;85.90;36.45;;;;;;;1.31;100.00;103754.72;4972630;28;20030;-94
2022/01/12 08:59:48;;;;;;;88.38;33.25;;;;;;;1.35;100.00;103756.63;4972247;28;20563;-96
2022/01/12 09:02:14;;;;;;;100.95;36.75;;;;;;;1.36;100.00;103768.00;4969824;28;20500;-95
2022/01/12 09:04:42;;;;;;;102.43;39.17;;;;;;;1.34;100.00;103767.03;4953207;28;21147;-95
2022/01/12 09:07:08;;;;;;;98.95;37.28;;;;;;;1.39;100.00;103760.25;4950419;29;20035;-95
2022/01/12 09:09:33;;;;;;;101.65;37.08;;;;;;;1.44;100.00;103756.91;4935419;29;20027;-95
2022/01/12 09:11:59;;;;;;;97.03;36.97;;;;;;;1.44;100.00;103751.69;4966503;28;20387;-95
2022/01/12 09:14:24;;;;;;;99.05;37.88;;;;;;;1.47;100.00;103750.91;4978575;28;20023;-94
2022/01/12 09:16:54;;;;;;;101.03;37.75;;;;;;;1.62;100.00;103774.13;4978199;28;20263;-96
2022/01/12 09:19:24;;;;;;;106.25;38.70;;;;;;;1.69;100.00;103778.75;4970784;28;20522;-96
2022/01/12 09:21:49;;;;;;;101.82;37.78;;;;;;;1.70;100.00;103778.78;4974513;28;20080;-96
2022/01/12 09:24:15;;;;;;;103.10;39.10;;;;;;;1.77;100.00;103793.00;4976447;28;20034;-95
2022/01/12 09:26:40;;;;;;;103.80;37.28;;;;;;;1.73;100.00;103789.41;4975359;28;20039;-96
2022/01/12 09:29:06;;;;;;;105.05;38.78;;;;;;;1.69;100.00;103791.88;4955460;28;20381;-95
2022/01/12 09:31:31;;;;;;;104.68;42.00;;;;;;;1.78;100.00;103815.81;4973157;28;20527;-94
2022/01/12 09:33:56;;;;;;;99.40;36.97;;;;;;;1.78;100.00;103807.03;4970384;28;20042;-96
2022/01/12 09:36:21;;;;;;;95.25;36.08;;;;;;;1.72;100.00;103805.13;4985322;28;20030;-96
2022/01/12 09:38:47;;;;;;;102.07;37.05;;;;;;;1.80;100.00;103814.13;4974270;28;20027;-94
2022/01/12 09:41:12;;;;;;;104.45;37.17;;;;;;;1.83;100.00;103813.31;4949270;29;20019;-93
2022/01/12 09:43:39;;;;;;;106.90;38.35;;;;;;;1.87;100.00;103813.47;4965806;28;20023;-96
2022/01/12 09:46:05;;;;;;;97.90;35.70;;;;;;;1.79;100.00;103798.31;4959672;28;20031;-93
2022/01/12 09:48:34;;;;;;;93.03;35.40;;;;;;;1.92;100.00;103826.75;4966294;28;20401;-93
2022/01/12 09:51:03;;;;;;;96.13;34.67;;;;;;;1.95;100.00;103822.50;4969971;28;20035;-94
2022/01/12 09:53:30;;;;;;;94.93;35.42;;;;;;;1.97;100.00;103828.72;4953258;28;20038;-96
2022/01/12 09:55:55;;;;;;;91.40;33.38;;;;;;;2.02;100.00;103820.09;4984019;28;20318;-96
2022/01/12 09:58:20;;;;;;;96.10;35.03;;;;;;;2.02;100.00;103815.72;4976556;28;20461;-88
2022/01/12 10:11:17;;;;;;;96.30;33.63;;;;;;;1.84;100.00;103781.88;5497994;23;21560;-92
2022/01/12 10:14:00;;;;;;;93.15;33.97;;;;;;;1.81;100.00;103778.25;5537442;23;20051;-91
2022/01/12 10:16:26;;;;;;;96.22;34.88;;;;;;;1.92;100.00;103792.59;5015281;28;20124;-89
2022/01/12 10:19:01;;;;;;;91.47;34.25;;;;;;;2.18;100.00;103846.91;4991965;28;20078;-89
2022/01/12 10:21:29;;;;;;;98.03;35.35;;;;;;;2.17;100.00;103850.38;4989102;28;20022;-95
2022/01/12 10:23:57;;;;;;;97.95;35.40;;;;;;;2.12;100.00;103840.53;5011553;28;20033;-94
2022/01/12 10:29:10;;;;;;;87.22;33.85;;;;;;;2.19;100.00;103839.91;5038948;23;20500;-95
2022/01/12 10:32:03;;;;;;;85.35;32.83;;;;;;;2.06;100.00;103806.19;5158036;23;20070;-95
2022/01/12 10:34:35;;;;;;;88.55;32.65;;;;;;;2.00;100.00;103799.88;5103808;23;20046;-90
2022/01/12 10:37:04;;;;;;;87.47;33.15;;;;;;;2.17;100.00;103834.59;4991253;28;20030;-91
2022/01/12 10:39:29;;;;;;;101.90;32.97;;;;;;;2.20;100.00;103839.94;4977139;28;20459;-94
2022/01/12 10:42:01;;;;;;;92.78;33.15;;;;;;;2.21;100.00;103830.31;4974905;28;20089;-94
2022/01/12 10:44:29;;;;;;;85.05;33.80;;;;;;;2.23;100.00;103833.91;4975574;28;20097;-91
2022/01/12 10:47:08;;;;;;;77.85;28.98;;;;;;;2.17;100.00;103831.97;4991428;28;20026;-93
2022/01/12 10:49:36;;;;;;;82.38;27.08;;;;;;;2.20;100.00;103833.78;4994254;28;20034;-92
2022/01/12 10:52:05;;;;;;;84.40;29.17;;;;;;;2.17;100.00;103844.19;4987811;28;20041;-90
2022/01/12 10:54:44;;;;;;;80.10;28.02;;;;;;;2.18;100.00;103846.91;4993306;28;20027;-90
2022/01/12 10:57:15;;;;;;;81.13;28.80;;;;;;;2.19;100.00;103845.16;4990311;28;20024;-90
2022/01/12 10:59:40;;;;;;;95.07;30.27;;;;;;;2.17;100.00;103837.25;4975249;28;20595;-91
2022/01/12 11:02:05;;;;;;;71.55;29.65;;;;;;;2.20;100.00;103845.19;4975019;28;20205;-92
2022/01/12 11:04:31;;;;;;;92.55;28.15;;;;;;;2.18;100.00;103846.91;4974894;28;20538;-94
2022/01/12 11:06:56;;;;;;;88.80;28.42;;;;;;;2.27;100.00;103854.19;4991207;28;20061;-92
2022/01/12 11:09:23;;;;;;;79.13;29.63;;;;;;;2.26;100.00;103847.16;4973300;28;20026;-91
2022/01/12 11:11:48;;;;;;;85.93;27.83;;;;;;;2.20;100.00;103841.69;4977487;28;20403;-91
2022/01/12 11:14:14;;;;;;;80.95;28.23;;;;;;;2.25;100.00;103840.97;4991944;28;20185;-93
2022/01/12 11:16:39;;;;;;;75.18;28.45;;;;;;;2.27;100.00;103851.56;4991360;28;20034;-93
2022/01/12 11:19:07;;;;;;;79.05;29.55;;;;;;;2.25;100.00;103846.22;4970021;28;20033;-93
2022/01/12 11:21:56;;;;;;;91.90;32.85;;;;;;;2.31;100.00;103845.53;4975800;28;20032;-94
2022/01/12 11:24:25;;;;;;;76.07;29.45;;;;;;;2.30;100.00;103834.97;5001246;28;20399;-93
2022/01/12 11:26:52;;;;;;;79.95;28.92;;;;;;;2.39;100.00;103840.53;5004282;28;20007;-93
2022/01/12 11:31:50;;;;;;;81.07;29.08;;;;;;;2.38;100.00;103847.53;4991477;28;20053;-95
2022/01/12 11:34:18;;;;;;;77.45;29.00;;;;;;;2.45;100.00;103854.75;5229624;23;20017;-92
2022/01/12 11:36:45;;;;;;;86.57;28.23;;;;;;;2.32;100.00;103831.56;5154035;23;20473;-96
2022/01/12 11:39:17;;;;;;;69.75;27.35;;;;;;;2.25;100.00;103811.16;4994238;28;20052;-96
2022/01/12 11:44:18;;;;;;;;;;;;;;;2.54;100.00;103856.75;5255451;22;20089;-95
2022/01/12 11:49:37;;;;;;;46.80;20.33;;;;;;;2.47;100.00;103866.22;5193005;23;20141;-96
2022/01/12 11:52:18;;;;;;;48.35;21.58;;;;;;;2.46;100.00;103871.41;5074476;23;20058;-93
2022/01/12 11:54:47;;;;;;;51.33;21.58;;;;;;;2.43;100.00;103856.44;4992577;28;20157;-94
2022/01/12 11:57:18;;;;;;;59.33;23.33;;;;;;;2.30;100.00;103830.63;5093225;23;20055;-95
2022/01/12 12:00:00;;;;;;;58.90;23.40;;;;;;;2.46;100.00;103845.13;5013648;28;20088;-93
2022/01/12 12:02:36;;;;;;;65.03;23.55;;;;;;;2.42;100.00;103836.22;5006279;28;20037;-94
2022/01/12 12:05:09;;;;;;;56.40;22.67;;;;;;;2.42;100.00;103830.97;5010381;28;20030;-94
2022/01/12 12:07:49;;;;;;;52.92;22.98;;;;;;;2.41;100.00;103838.84;5010693;28;20029;-93
2022/01/12 12:10:17;;;;;;;54.88;22.02;;;;;;;2.44;100.00;103844.19;5012495;28;20041;-89
2022/01/12 12:12:43;;;;;;;59.55;23.95;;;;;;;2.43;100.00;103839.78;4991089;28;20117;-92
2022/01/12 12:15:10;;;;;;;51.50;23.98;;;;;;;2.43;100.00;103839.78;4990458;28;20097;-91
2022/01/12 12:17:37;;;;;;;55.00;22.90;;;;;;;2.42;100.00;103841.50;4985369;28;20037;-90
2022/01/12 12:20:05;;;;;;;58.13;23.85;;;;;;;2.41;100.00;103850.22;4988690;28;20038;-90
2022/01/12 12:22:34;;;;;;;56.30;22.70;;;;;;;2.42;100.00;103846.75;4990417;28;20049;-92
2022/01/12 12:25:04;;;;;;;44.60;20.52;;;;;;;2.42;100.00;103854.63;4992191;28;20304;-92
2022/01/12 12:27:30;;;;;;;46.90;20.60;;;;;;;2.36;100.00;103853.56;4992562;28;20028;-93
2022/01/12 12:29:57;;;;;;;52.30;21.80;;;;;;;2.38;100.00;103851.88;4990853;28;20066;-93
2022/01/12 12:32:42;;;;;;;54.60;23.65;;;;;;;2.40;100.00;103852.81;4992461;28;20120;-91
2022/01/12 12:35:16;;;;;;;49.67;22.50;;;;;;;2.46;100.00;103861.78;4987585;28;20441;-92
2022/01/12 12:37:48;;;;;;;46.15;21.23;;;;;;;2.45;100.00;103859.13;4982943;28;20022;-95
2022/01/12 12:40:18;;;;;;;46.05;20.13;;;;;;;2.41;100.00;103858.13;4991098;28;20030;-89
2022/01/12 12:42:46;;;;;;;43.20;19.42;;;;;;;2.39;100.00;103854.56;4990294;28;20436;-90
2022/01/12 12:45:12;;;;;;;45.65;20.20;;;;;;;2.40;100.00;103850.19;4991963;28;20380;-90
2022/01/12 12:47:37;;;;;;;40.00;18.63;;;;;;;2.41;100.00;103847.59;4988390;28;20146;-88